Cairns AAF (Fort Rucker) Air Field
KOZR : now visible

Airfield :











YOU CAN JOIN US ON...

 
LOGIN :

Register | Disclaimer

   EN    FR    IT 

 









Legend :    VFR   Marginal VFR   IFR   Intensive IFR   Very Intensive IFR
Visi :
Ceiling :
>= 8 km
>= 3000ft
5 to 8 km
1000 to 3000 ft
1500m to 5 km
500 to 1000 ft
800 to 1500m
200 to 500 ft
< 800m
< 200 ft
Symbols :   Thunderstorms  Fog  Heavy snow  Heavy precipitations  Wind > 20 kt






- Airport Elevation : 301 ft


KOZR - Cairns AAF (Fort Rucker) Air Field

CURRENT METAR :
  • 172108Z AUTO 00000KT 10SM OVC008 17/15 A3006 RMK AO2 DZB01E08 SLP181 $

EXPIRED METARs :
  • 172056Z AUTO 09004KT 10SM OVC008 17/15 A3006 RMK AO2 RAB39E53 SLP181 P0000 60000 T01680148 55004 $
  • 172039Z AUTO 00000KT 10SM -RA OVC008 17/15 A3006 RMK AO2 RAB39 SLP181 $
  • 172019Z AUTO 00000KT 10SM OVC008 16/15 A3006 RMK AO2 SLP181 $
  • 171956Z AUTO 06004KT 10SM OVC007 16/15 A3004 RMK AO2 SLP174 T01610146 $
  • 171941Z AUTO 04005KT 10SM OVC007 16/15 A3004 RMK AO2 SLP174 $
  • 171856Z AUTO 09006KT 9SM OVC006 15/15 A3005 RMK AO2 SLP178 T01540146 $

Expired Forecast.



MET'MAP, your aeronautical weather chart ! - Copyright ORBIFLY December 2007 - Disclaimer

ORBIFLY MET'MAP TEAM :

Programming & Development : Alexandra Zaïnal
Concept & original design : Baudouin d'Aumeries
Assistance for programming : Marc-Olivier Méhu
Technical & hardware support : Manuel Goepfert

Contact : metmap@orbifly.com




SOURCES & CREDITS :

   NOAA       Earth
Advisory